createdAt,value
2019-03-26T00:00:55.918Z,0
2019-03-26T00:01:58.236Z,0
2019-03-26T00:03:01.121Z,0
2019-03-26T00:04:07.509Z,0
2019-03-26T00:05:09.640Z,0
2019-03-26T00:06:11.670Z,0
2019-03-26T00:07:13.713Z,0
2019-03-26T00:08:16.162Z,0
2019-03-26T00:09:18.279Z,0
2019-03-26T00:10:20.610Z,0
2019-03-26T00:11:22.627Z,0
2019-03-26T00:12:24.676Z,0
2019-03-26T00:13:27.002Z,0
2019-03-26T00:14:29.413Z,0
2019-03-26T00:15:31.501Z,0
2019-03-26T00:16:34.109Z,0
2019-03-26T00:17:36.166Z,0
2019-03-26T00:18:38.185Z,0
2019-03-26T00:19:40.619Z,0
2019-03-26T00:20:42.722Z,0
2019-03-26T00:21:44.831Z,0
2019-03-26T00:22:46.862Z,0
2019-03-26T00:23:48.871Z,0
2019-03-26T00:24:50.925Z,0
2019-03-26T00:25:52.924Z,0
2019-03-26T00:26:54.930Z,0
2019-03-26T00:27:56.949Z,0
2019-03-26T00:28:58.973Z,0
2019-03-26T00:30:01.509Z,0
2019-03-26T00:31:03.995Z,0
2019-03-26T00:32:06.024Z,0
2019-03-26T00:33:08.043Z,0
2019-03-26T00:34:21.391Z,0
2019-03-26T00:35:23.424Z,0
2019-03-26T00:36:25.444Z,0
2019-03-26T00:37:30.850Z,0
2019-03-26T00:38:33.259Z,0
2019-03-26T00:39:35.294Z,0
2019-03-26T00:40:41.383Z,0
2019-03-26T00:41:43.522Z,0
2019-03-26T00:42:45.637Z,0
2019-03-26T00:43:47.675Z,0
2019-03-26T00:44:50.131Z,0
2019-03-26T00:45:52.464Z,0
2019-03-26T00:46:55.190Z,0
2019-03-26T00:47:57.830Z,0
2019-03-26T00:48:59.836Z,0
2019-03-26T00:50:02.228Z,0
2019-03-26T00:51:04.250Z,0
2019-03-26T00:52:06.263Z,0
2019-03-26T00:53:08.348Z,0
2019-03-26T00:54:10.584Z,0
2019-03-26T00:55:24.529Z,0
2019-03-26T00:56:26.541Z,0
2019-03-26T00:57:28.988Z,0
2019-03-26T00:58:31.298Z,0
2019-03-26T00:59:33.373Z,0
2019-03-26T01:00:35.438Z,0
2019-03-26T01:01:37.443Z,0
2019-03-26T01:02:39.444Z,0
2019-03-26T01:03:42.585Z,0
2019-03-26T01:04:44.584Z,0
2019-03-26T01:05:56.177Z,0
2019-03-26T01:07:02.009Z,0
2019-03-26T01:08:04.746Z,0
2019-03-26T01:09:06.758Z,0
2019-03-26T01:10:08.767Z,0
2019-03-26T01:11:11.069Z,0
2019-03-26T01:12:13.078Z,0
2019-03-26T01:13:15.478Z,0
2019-03-26T01:14:17.485Z,0
2019-03-26T01:15:19.866Z,0
2019-03-26T01:16:22.814Z,0
2019-03-26T01:17:25.229Z,0
2019-03-26T01:18:27.796Z,0
2019-03-26T01:19:30.140Z,0
2019-03-26T01:20:32.175Z,0
2019-03-26T01:21:34.323Z,0
2019-03-26T01:22:37.328Z,0
2019-03-26T01:23:39.412Z,0
2019-03-26T01:24:41.413Z,0
2019-03-26T01:25:43.538Z,0
2019-03-26T01:26:45.542Z,0
2019-03-26T01:27:47.829Z,0
2019-03-26T01:28:49.828Z,0
2019-03-26T01:29:51.877Z,0
2019-03-26T01:30:54.268Z,0
2019-03-26T01:31:56.483Z,0
2019-03-26T01:32:58.937Z,0
2019-03-26T01:34:00.946Z,0
2019-03-26T01:35:03.253Z,0
2019-03-26T01:36:05.314Z,0
2019-03-26T01:37:07.597Z,0
2019-03-26T01:38:09.601Z,0
2019-03-26T01:39:11.887Z,0
2019-03-26T01:40:14.234Z,0
2019-03-26T01:41:16.880Z,0
2019-03-26T01:42:19.886Z,0
2019-03-26T01:43:22.190Z,0
2019-03-26T01:44:24.240Z,0
2019-03-26T01:45:26.526Z,0
2019-03-26T01:46:28.587Z,0
2019-03-26T01:47:30.586Z,0
2019-03-26T01:48:32.655Z,0
2019-03-26T01:49:34.694Z,0
2019-03-26T01:50:36.702Z,0
2019-03-26T01:51:38.712Z,0
2019-03-26T01:52:40.739Z,0
2019-03-26T01:53:42.864Z,0
2019-03-26T01:54:44.887Z,0
2019-03-26T01:55:46.899Z,0
2019-03-26T01:56:48.909Z,0
2019-03-26T01:57:50.917Z,0
2019-03-26T01:58:53.213Z,0
2019-03-26T01:59:55.598Z,0
2019-03-26T02:00:57.602Z,0
2019-03-26T02:01:59.600Z,0
2019-03-26T02:03:08.286Z,0
2019-03-26T02:04:19.300Z,0
2019-03-26T02:05:25.212Z,0
2019-03-26T02:06:27.247Z,0
2019-03-26T02:07:29.548Z,0
2019-03-26T02:08:31.657Z,0
2019-03-26T02:09:35.712Z,0
2019-03-26T02:10:37.949Z,0
2019-03-26T02:11:39.945Z,0
2019-03-26T02:12:42.014Z,0
2019-03-26T02:13:44.723Z,0
2019-03-26T02:14:47.214Z,0
2019-03-26T02:15:49.605Z,0
2019-03-26T02:16:51.729Z,0
2019-03-26T02:17:53.984Z,0
2019-03-26T02:18:56.380Z,0
2019-03-26T02:19:59.896Z,0
2019-03-26T02:21:01.918Z,0
2019-03-26T02:22:04.308Z,0
2019-03-26T02:23:06.342Z,0
2019-03-26T02:24:08.862Z,0
2019-03-26T02:25:10.863Z,0
2019-03-26T02:26:12.865Z,0
2019-03-26T02:27:15.255Z,0
2019-03-26T02:28:17.510Z,0
2019-03-26T02:29:19.517Z,0
2019-03-26T02:30:22.203Z,0
2019-03-26T02:31:24.359Z,0
2019-03-26T02:32:28.304Z,0
2019-03-26T02:33:35.708Z,0
2019-03-26T02:34:43.901Z,0
2019-03-26T02:35:53.849Z,0
2019-03-26T02:36:59.874Z,0
2019-03-26T02:38:02.262Z,0
2019-03-26T02:39:04.949Z,0
2019-03-26T02:40:07.527Z,0
2019-03-26T02:41:09.647Z,0
2019-03-26T02:42:11.654Z,0
2019-03-26T02:43:14.233Z,0
2019-03-26T02:44:16.269Z,0
2019-03-26T02:45:18.586Z,0
2019-03-26T02:46:21.280Z,0
2019-03-26T02:47:23.847Z,0
2019-03-26T02:48:26.152Z,0
2019-03-26T02:49:28.567Z,0
2019-03-26T02:50:31.184Z,0
2019-03-26T02:51:33.466Z,0
2019-03-26T02:52:36.326Z,0
2019-03-26T02:53:38.619Z,0
2019-03-26T02:54:41.207Z,0
2019-03-26T02:55:43.235Z,0
2019-03-26T02:56:45.899Z,0
2019-03-26T02:57:47.953Z,0
2019-03-26T02:58:50.520Z,0
2019-03-26T02:59:52.536Z,0
2019-03-26T03:00:54.548Z,0
2019-03-26T03:01:56.848Z,0
2019-03-26T03:02:59.162Z,0
2019-03-26T03:04:01.465Z,0
2019-03-26T03:05:03.780Z,0
2019-03-26T03:06:07.025Z,0
2019-03-26T03:07:09.092Z,0
2019-03-26T03:08:11.160Z,0
2019-03-26T03:09:13.859Z,0
2019-03-26T03:10:16.313Z,0
2019-03-26T03:11:18.974Z,0
2019-03-26T03:12:21.398Z,0
2019-03-26T03:13:24.305Z,0
2019-03-26T03:14:26.414Z,0
2019-03-26T03:15:28.720Z,0
2019-03-26T03:16:30.810Z,0
2019-03-26T03:17:33.429Z,0
2019-03-26T03:18:35.826Z,0
2019-03-26T03:19:37.855Z,0
2019-03-26T03:20:40.331Z,0
2019-03-26T03:21:42.350Z,0
2019-03-26T03:22:44.760Z,0
2019-03-26T03:23:47.098Z,0
2019-03-26T03:24:49.103Z,0
2019-03-26T03:25:51.507Z,0
2019-03-26T03:26:53.927Z,0
2019-03-26T03:27:55.956Z,0
2019-03-26T03:28:58.361Z,0
2019-03-26T03:30:01.991Z,0
2019-03-26T03:31:04.519Z,0
2019-03-26T03:32:06.593Z,0
2019-03-26T03:33:09.231Z,0
2019-03-26T03:34:11.330Z,0
2019-03-26T03:35:13.713Z,0
2019-03-26T03:36:15.734Z,0
2019-03-26T03:37:18.022Z,0
2019-03-26T03:38:20.326Z,0
2019-03-26T03:39:22.714Z,0
2019-03-26T03:40:24.728Z,0
2019-03-26T03:41:26.734Z,0
2019-03-26T03:42:29.113Z,0
2019-03-26T03:43:31.794Z,0
2019-03-26T03:44:33.814Z,0
2019-03-26T03:45:36.509Z,0
2019-03-26T03:46:38.590Z,0
2019-03-26T03:47:40.988Z,0
2019-03-26T03:48:43.294Z,0
2019-03-26T03:49:45.323Z,0
2019-03-26T03:50:47.364Z,0
2019-03-26T03:51:49.367Z,0
2019-03-26T03:52:51.653Z,0
2019-03-26T03:53:53.939Z,0
2019-03-26T03:54:55.948Z,0
2019-03-26T03:55:58.231Z,0
2019-03-26T03:57:01.325Z,0
2019-03-26T03:58:04.436Z,0
2019-03-26T03:59:07.029Z,0
2019-03-26T04:00:09.036Z,0
2019-03-26T04:01:11.460Z,0
2019-03-26T04:02:13.954Z,0
2019-03-26T04:03:16.019Z,0
2019-03-26T04:04:18.415Z,0
2019-03-26T04:05:20.788Z,0
2019-03-26T04:06:23.082Z,0
2019-03-26T04:07:25.085Z,0
2019-03-26T04:08:27.481Z,0
2019-03-26T04:09:29.511Z,0
2019-03-26T04:10:32.095Z,0
2019-03-26T04:11:34.686Z,0
2019-03-26T04:12:37.093Z,0
2019-03-26T04:13:39.382Z,0
2019-03-26T04:14:41.387Z,0
2019-03-26T04:15:44.070Z,0
2019-03-26T04:16:47.034Z,0
2019-03-26T04:17:49.041Z,0
2019-03-26T04:18:51.082Z,0
2019-03-26T04:19:53.397Z,0
2019-03-26T04:20:55.422Z,0
2019-03-26T04:21:57.729Z,0
2019-03-26T04:23:00.306Z,0
2019-03-26T04:24:02.638Z,0
2019-03-26T04:25:04.662Z,0
2019-03-26T04:26:06.951Z,0
2019-03-26T04:27:09.640Z,0
2019-03-26T04:28:12.030Z,0
2019-03-26T04:29:14.038Z,0
2019-03-26T04:30:16.057Z,0
2019-03-26T04:31:18.085Z,0
2019-03-26T04:32:20.396Z,0
2019-03-26T04:33:22.563Z,0
2019-03-26T04:34:24.930Z,0
2019-03-26T04:35:27.367Z,0
2019-03-26T04:36:29.407Z,0
2019-03-26T04:37:31.430Z,0
2019-03-26T04:38:33.862Z,0
2019-03-26T04:39:36.190Z,0
2019-03-26T04:40:38.235Z,0
2019-03-26T04:41:41.138Z,0
2019-03-26T04:42:43.197Z,0
2019-03-26T04:43:45.248Z,0
2019-03-26T04:44:47.269Z,0
2019-03-26T04:45:49.692Z,0
2019-03-26T04:46:51.715Z,0
2019-03-26T04:47:53.815Z,0
2019-03-26T04:48:56.233Z,0
2019-03-26T04:49:58.274Z,0
2019-03-26T04:51:00.294Z,0
2019-03-26T04:52:02.606Z,0
2019-03-26T04:53:05.419Z,0
2019-03-26T04:54:07.443Z,0
2019-03-26T04:55:09.844Z,0
2019-03-26T04:56:11.876Z,0
2019-03-26T04:57:13.975Z,0
2019-03-26T04:58:15.996Z,1
2019-03-26T04:59:18.038Z,1
2019-03-26T05:00:20.347Z,1
2019-03-26T05:01:22.369Z,1
2019-03-26T05:02:24.429Z,1
2019-03-26T05:03:26.466Z,1
2019-03-26T05:04:28.502Z,1
2019-03-26T05:05:30.942Z,1
2019-03-26T05:06:39.606Z,2
2019-03-26T05:07:41.919Z,2
2019-03-26T05:08:43.950Z,1
2019-03-26T05:09:46.374Z,1
2019-03-26T05:10:51.257Z,1
2019-03-26T05:11:53.362Z,1
2019-03-26T05:12:55.472Z,1
2019-03-26T05:13:57.886Z,2
2019-03-26T05:14:59.906Z,2
2019-03-26T05:16:01.932Z,2
2019-03-26T05:17:03.988Z,2
2019-03-26T05:18:06.015Z,2
2019-03-26T05:19:08.442Z,3
2019-03-26T05:20:10.464Z,3
2019-03-26T05:21:12.492Z,3
2019-03-26T05:22:25.688Z,4
2019-03-26T05:23:27.722Z,4
2019-03-26T05:24:29.830Z,4
2019-03-26T05:25:31.872Z,4
2019-03-26T05:26:33.897Z,4
2019-03-26T05:27:47.375Z,5
2019-03-26T05:28:49.411Z,5
2019-03-26T05:29:51.438Z,5
2019-03-26T05:30:53.458Z,6
2019-03-26T05:31:55.577Z,6
2019-03-26T05:32:57.599Z,6
2019-03-26T05:33:59.636Z,6
2019-03-26T05:35:02.253Z,7
2019-03-26T05:36:04.554Z,8
2019-03-26T05:37:06.591Z,9
2019-03-26T05:38:08.915Z,10
2019-03-26T05:39:10.953Z,9
2019-03-26T05:40:12.967Z,10
2019-03-26T05:41:15.009Z,8
2019-03-26T05:42:17.037Z,8
2019-03-26T05:43:19.062Z,9
2019-03-26T05:44:21.111Z,9
2019-03-26T05:45:23.134Z,8
2019-03-26T05:46:25.161Z,8
2019-03-26T05:47:27.181Z,9
2019-03-26T05:48:29.518Z,9
2019-03-26T05:49:31.820Z,8
2019-03-26T05:50:33.862Z,8
2019-03-26T05:51:35.896Z,10
2019-03-26T05:52:37.915Z,10
2019-03-26T05:53:39.958Z,12
2019-03-26T05:54:41.985Z,12
2019-03-26T05:55:44.007Z,12
2019-03-26T05:56:46.030Z,10
2019-03-26T05:57:48.363Z,9
2019-03-26T05:58:50.400Z,9
2019-03-26T05:59:52.433Z,8
2019-03-26T06:00:54.757Z,7
2019-03-26T06:01:56.865Z,8
2019-03-26T06:02:58.939Z,9
2019-03-26T06:04:01.294Z,10
2019-03-26T06:05:03.320Z,11
2019-03-26T06:06:05.358Z,12
2019-03-26T06:07:08.065Z,13
2019-03-26T06:08:10.116Z,15
2019-03-26T06:09:12.198Z,15
2019-03-26T06:10:14.251Z,16
2019-03-26T06:11:16.566Z,15
2019-03-26T06:12:18.878Z,14
2019-03-26T06:13:21.187Z,12
2019-03-26T06:14:23.237Z,11
2019-03-26T06:15:25.270Z,10
2019-03-26T06:16:40.208Z,12
2019-03-26T06:17:42.256Z,13
2019-03-26T06:18:44.676Z,15
2019-03-26T06:19:46.703Z,18
2019-03-26T06:20:49.111Z,20
2019-03-26T06:21:51.168Z,20
2019-03-26T06:22:53.217Z,19
2019-03-26T06:23:55.615Z,19
2019-03-26T06:24:57.665Z,19
2019-03-26T06:25:59.710Z,17
2019-03-26T06:27:01.779Z,14
2019-03-26T06:28:04.111Z,12
2019-03-26T06:29:06.125Z,11
2019-03-26T06:30:08.553Z,12
2019-03-26T06:31:10.874Z,14
2019-03-26T06:32:12.900Z,15
2019-03-26T06:33:14.933Z,16
2019-03-26T06:34:16.964Z,17
2019-03-26T06:35:18.982Z,19
2019-03-26T06:36:21.017Z,19
2019-03-26T06:37:23.056Z,19
2019-03-26T06:38:25.076Z,17
2019-03-26T06:39:27.505Z,17
2019-03-26T06:40:29.533Z,17
2019-03-26T06:41:31.556Z,17
2019-03-26T06:42:33.601Z,19
2019-03-26T06:43:35.626Z,21
2019-03-26T06:44:37.736Z,22
2019-03-26T06:45:40.337Z,22
2019-03-26T06:46:42.387Z,22
2019-03-26T06:47:44.408Z,21
2019-03-26T06:48:46.437Z,21
2019-03-26T06:49:48.764Z,22
2019-03-26T06:50:50.785Z,22
2019-03-26T06:51:53.395Z,21
2019-03-26T06:52:55.422Z,20
2019-03-26T06:53:57.466Z,21
2019-03-26T06:54:59.492Z,21
2019-03-26T06:56:01.536Z,20
2019-03-26T06:57:03.575Z,21
2019-03-26T06:58:06.194Z,21
2019-03-26T06:59:08.516Z,20
2019-03-26T07:00:10.946Z,20
2019-03-26T07:01:12.990Z,21
2019-03-26T07:02:15.613Z,21
2019-03-26T07:03:17.641Z,22
2019-03-26T07:04:19.664Z,23
2019-03-26T07:05:21.703Z,25
2019-03-26T07:06:24.013Z,25
2019-03-26T07:07:33.202Z,26
2019-03-26T07:08:35.246Z,34
2019-03-26T07:09:37.291Z,41
2019-03-26T07:10:39.313Z,37
2019-03-26T07:11:41.394Z,38
2019-03-26T07:12:43.422Z,36
2019-03-26T07:13:45.450Z,27
2019-03-26T07:14:47.489Z,20
2019-03-26T07:15:49.512Z,16
2019-03-26T07:16:51.556Z,18
2019-03-26T07:17:54.126Z,21
2019-03-26T07:18:56.455Z,23
2019-03-26T07:19:58.480Z,27
2019-03-26T07:21:00.519Z,34
2019-03-26T07:22:02.552Z,34
2019-03-26T07:23:04.577Z,29
2019-03-26T07:24:06.633Z,33
2019-03-26T07:25:08.750Z,30
2019-03-26T07:26:10.790Z,39
2019-03-26T07:27:12.863Z,47
2019-03-26T07:28:15.166Z,50
2019-03-26T07:29:17.212Z,59
2019-03-26T07:30:19.258Z,70
2019-03-26T07:31:21.570Z,75
2019-03-26T07:32:23.618Z,61
2019-03-26T07:33:25.640Z,57
2019-03-26T07:34:27.682Z,50
2019-03-26T07:35:30.378Z,57
2019-03-26T07:36:32.704Z,53
2019-03-26T07:37:46.956Z,47
2019-03-26T07:38:48.988Z,55
2019-03-26T07:39:51.017Z,45
2019-03-26T07:40:53.067Z,36
2019-03-26T07:41:55.119Z,36
2019-03-26T07:42:57.250Z,40
2019-03-26T07:43:59.682Z,39
2019-03-26T07:45:01.745Z,36
2019-03-26T07:46:03.788Z,36
2019-03-26T07:47:05.822Z,33
2019-03-26T07:48:07.866Z,27
2019-03-26T07:49:09.888Z,27
2019-03-26T07:50:15.245Z,24
2019-03-26T07:51:17.280Z,22
2019-03-26T07:52:19.779Z,20
2019-03-26T07:53:21.808Z,23
2019-03-26T07:54:23.847Z,23
2019-03-26T07:55:26.161Z,26
2019-03-26T07:56:28.191Z,32
2019-03-26T07:57:30.237Z,28
2019-03-26T07:58:34.537Z,31
2019-03-26T07:59:36.572Z,29
2019-03-26T08:00:38.925Z,31
2019-03-26T08:01:40.969Z,37
2019-03-26T08:02:42.996Z,45
2019-03-26T08:03:45.027Z,57
2019-03-26T08:04:47.064Z,52
2019-03-26T08:05:49.408Z,43
2019-03-26T08:06:51.508Z,46
2019-03-26T08:08:00.258Z,45
2019-03-26T08:09:02.321Z,46
2019-03-26T08:10:04.353Z,46
2019-03-26T08:11:06.384Z,42
2019-03-26T08:12:08.421Z,47
2019-03-26T08:13:11.191Z,50
2019-03-26T08:14:13.369Z,53
2019-03-26T08:15:15.805Z,59
2019-03-26T08:16:17.864Z,50
2019-03-26T08:17:19.987Z,41
2019-03-26T08:18:22.419Z,49
2019-03-26T08:19:24.448Z,54
2019-03-26T08:20:26.771Z,55
2019-03-26T08:21:28.812Z,47
2019-03-26T08:22:30.830Z,49
2019-03-26T08:23:33.146Z,57
2019-03-26T08:24:35.462Z,63
2019-03-26T08:25:37.789Z,63
2019-03-26T08:26:39.818Z,56
2019-03-26T08:27:42.252Z,48
2019-03-26T08:28:44.289Z,51
2019-03-26T08:29:46.322Z,58
2019-03-26T08:30:51.492Z,62
2019-03-26T08:31:53.517Z,72
2019-03-26T08:32:55.552Z,82
2019-03-26T08:33:57.860Z,87
2019-03-26T08:34:59.911Z,86
2019-03-26T08:36:02.342Z,112
2019-03-26T08:37:04.421Z,89
2019-03-26T08:38:14.879Z,76
2019-03-26T08:39:16.975Z,70
2019-03-26T08:40:19.038Z,59
2019-03-26T08:41:21.080Z,54
2019-03-26T08:42:23.123Z,50
2019-03-26T08:43:25.166Z,47
2019-03-26T08:44:27.192Z,45
2019-03-26T08:45:29.228Z,49
2019-03-26T08:46:31.327Z,54
2019-03-26T08:47:33.363Z,57
2019-03-26T08:48:35.420Z,73
2019-03-26T08:49:37.460Z,99
2019-03-26T08:50:39.483Z,203
2019-03-26T08:51:41.579Z,82
2019-03-26T08:52:43.615Z,56
2019-03-26T08:53:45.647Z,46
2019-03-26T08:54:47.691Z,54
2019-03-26T08:55:50.052Z,54
2019-03-26T08:56:52.100Z,61
2019-03-26T08:57:54.139Z,67
2019-03-26T08:58:56.194Z,61
2019-03-26T08:59:58.211Z,55
2019-03-26T09:01:00.257Z,61
2019-03-26T09:02:02.297Z,78
2019-03-26T09:03:04.644Z,110
2019-03-26T09:04:06.713Z,119
2019-03-26T09:05:09.027Z,86
2019-03-26T09:06:11.077Z,91
2019-03-26T09:07:13.180Z,128
2019-03-26T09:08:27.273Z,54
2019-03-26T09:09:29.588Z,69
2019-03-26T09:10:31.627Z,61
2019-03-26T09:11:33.960Z,56
2019-03-26T09:12:35.980Z,46
2019-03-26T09:13:38.031Z,74
2019-03-26T09:14:40.066Z,128
2019-03-26T09:15:42.116Z,104
2019-03-26T09:16:44.148Z,112
2019-03-26T09:17:46.236Z,103
2019-03-26T09:18:48.273Z,95
2019-03-26T09:19:50.321Z,81
2019-03-26T09:20:52.355Z,78
2019-03-26T09:21:54.378Z,69
2019-03-26T09:22:56.432Z,76
2019-03-26T09:23:58.481Z,67
2019-03-26T09:25:00.753Z,62
2019-03-26T09:26:03.077Z,57
2019-03-26T09:27:05.175Z,52
2019-03-26T09:28:07.226Z,54
2019-03-26T09:29:09.309Z,59
2019-03-26T09:30:11.727Z,49
2019-03-26T09:31:13.765Z,42
2019-03-26T09:32:16.084Z,40
2019-03-26T09:33:18.188Z,44
2019-03-26T09:34:20.286Z,56
2019-03-26T09:35:22.330Z,59
2019-03-26T09:36:24.385Z,56
2019-03-26T09:37:26.731Z,56
2019-03-26T09:38:40.596Z,57
2019-03-26T09:39:42.642Z,63
2019-03-26T09:40:44.693Z,68
2019-03-26T09:41:47.028Z,63
2019-03-26T09:42:49.459Z,56
2019-03-26T09:43:51.503Z,58
2019-03-26T09:44:57.057Z,66
2019-03-26T09:45:59.399Z,66
2019-03-26T09:47:16.724Z,66
2019-03-26T09:48:18.880Z,68
2019-03-26T09:49:20.930Z,73
2019-03-26T09:50:22.963Z,92
2019-03-26T09:51:25.008Z,109
2019-03-26T09:52:27.056Z,97
2019-03-26T09:53:29.081Z,80
2019-03-26T09:54:31.120Z,85
2019-03-26T09:55:33.173Z,133
2019-03-26T09:56:35.216Z,157
2019-03-26T09:57:37.564Z,139
2019-03-26T09:58:39.587Z,319
2019-03-26T09:59:41.632Z,421
2019-03-26T10:00:44.722Z,331
2019-03-26T10:01:47.083Z,260
2019-03-26T10:02:49.142Z,164
2019-03-26T10:03:51.171Z,151
2019-03-26T10:04:53.214Z,136
2019-03-26T10:05:55.250Z,97
2019-03-26T10:06:57.294Z,221
2019-03-26T10:07:59.323Z,104
2019-03-26T10:09:01.360Z,162
2019-03-26T10:10:03.414Z,345
2019-03-26T10:11:05.451Z,94
2019-03-26T10:12:07.520Z,80
2019-03-26T10:13:09.843Z,70
2019-03-26T10:14:11.971Z,60
2019-03-26T10:15:14.002Z,52
2019-03-26T10:16:16.123Z,43
2019-03-26T10:17:18.161Z,31
2019-03-26T10:18:24.577Z,21
2019-03-26T10:19:26.642Z,15
2019-03-26T10:20:28.892Z,12
2019-03-26T10:21:31.278Z,16
2019-03-26T10:22:33.325Z,23
2019-03-26T10:23:35.372Z,30
2019-03-26T10:24:37.410Z,35
2019-03-26T10:25:39.616Z,39
2019-03-26T10:26:41.700Z,41
2019-03-26T10:27:43.753Z,41
2019-03-26T10:28:46.113Z,41
2019-03-26T10:29:48.211Z,43
2019-03-26T10:30:50.241Z,48
2019-03-26T10:31:52.294Z,58
2019-03-26T10:32:54.333Z,64
2019-03-26T10:33:56.687Z,71
2019-03-26T10:34:59.090Z,72
2019-03-26T10:36:01.526Z,76
2019-03-26T10:37:03.586Z,78
2019-03-26T10:38:05.653Z,96
2019-03-26T10:39:07.690Z,109
2019-03-26T10:40:10.139Z,152
2019-03-26T10:41:12.274Z,283
2019-03-26T10:42:14.345Z,269
2019-03-26T10:43:16.439Z,140
2019-03-26T10:44:18.470Z,159
2019-03-26T10:45:20.535Z,141
2019-03-26T10:46:24.506Z,120
2019-03-26T10:47:26.554Z,140
2019-03-26T10:48:32.045Z,149
2019-03-26T10:49:34.438Z,144
2019-03-26T10:50:36.795Z,202
2019-03-26T10:51:38.843Z,255
2019-03-26T10:52:40.902Z,130
2019-03-26T10:53:43.213Z,71
2019-03-26T10:54:45.268Z,52
2019-03-26T10:55:47.425Z,42
2019-03-26T10:56:49.868Z,35
2019-03-26T10:57:52.010Z,31
2019-03-26T10:58:54.044Z,29
2019-03-26T10:59:56.090Z,27
2019-03-26T11:00:58.121Z,28
2019-03-26T11:02:02.340Z,29
2019-03-26T11:03:04.688Z,43
2019-03-26T11:04:09.052Z,52
2019-03-26T11:05:11.110Z,60
2019-03-26T11:06:13.165Z,61
2019-03-26T11:07:15.227Z,70
2019-03-26T11:08:17.271Z,68
2019-03-26T11:09:28.638Z,70
2019-03-26T11:10:30.681Z,65
2019-03-26T11:11:32.717Z,70
2019-03-26T11:12:34.764Z,79
2019-03-26T11:13:36.845Z,86
2019-03-26T11:14:38.871Z,93
2019-03-26T11:15:41.586Z,112
2019-03-26T11:16:43.928Z,157
2019-03-26T11:17:45.959Z,187
2019-03-26T11:18:48.296Z,168
2019-03-26T11:19:50.336Z,70
2019-03-26T11:21:04.592Z,77
2019-03-26T11:22:06.622Z,125
2019-03-26T11:23:08.660Z,113
2019-03-26T11:24:10.702Z,129
2019-03-26T11:25:13.976Z,108
2019-03-26T11:26:16.027Z,105
2019-03-26T11:27:18.439Z,108
2019-03-26T11:28:21.050Z,102
2019-03-26T11:29:23.480Z,90
2019-03-26T11:30:25.543Z,94
2019-03-26T11:31:31.114Z,98
2019-03-26T11:32:33.156Z,94
2019-03-26T11:33:35.187Z,92
2019-03-26T11:34:37.894Z,92
2019-03-26T11:35:39.943Z,90
2019-03-26T11:36:41.998Z,88
2019-03-26T11:37:44.085Z,83
2019-03-26T11:38:46.144Z,73
2019-03-26T11:39:48.511Z,70
2019-03-26T11:40:50.555Z,71
2019-03-26T11:41:52.600Z,67
2019-03-26T11:42:54.631Z,68
2019-03-26T11:43:56.679Z,67
2019-03-26T11:45:00.893Z,65
2019-03-26T11:46:02.945Z,57
2019-03-26T11:47:04.982Z,49
2019-03-26T11:48:07.025Z,56
2019-03-26T11:49:09.453Z,62
2019-03-26T11:50:11.777Z,57
2019-03-26T11:51:13.829Z,56
2019-03-26T11:52:15.856Z,56
2019-03-26T11:53:17.893Z,69
2019-03-26T11:54:19.927Z,80
2019-03-26T11:55:23.273Z,78
2019-03-26T11:56:25.882Z,64
2019-03-26T11:57:27.921Z,68
2019-03-26T11:58:32.604Z,64
2019-03-26T11:59:35.018Z,64
2019-03-26T12:00:37.361Z,61
2019-03-26T12:01:39.396Z,70
2019-03-26T12:02:41.811Z,71
2019-03-26T12:03:43.952Z,71
2019-03-26T12:04:45.998Z,69
2019-03-26T12:05:48.041Z,71
2019-03-26T12:06:50.088Z,72
2019-03-26T12:07:52.132Z,72
2019-03-26T12:08:54.162Z,81
2019-03-26T12:09:56.302Z,85
2019-03-26T12:10:58.358Z,85
2019-03-26T12:12:00.387Z,77
2019-03-26T12:13:02.445Z,81
2019-03-26T12:14:04.488Z,77
2019-03-26T12:15:06.519Z,78
2019-03-26T12:16:08.849Z,83
2019-03-26T12:17:10.883Z,82
2019-03-26T12:18:12.926Z,78
2019-03-26T12:19:14.956Z,84
2019-03-26T12:20:17.292Z,89
2019-03-26T12:21:19.379Z,157
2019-03-26T12:22:21.426Z,97
2019-03-26T12:23:23.474Z,95
2019-03-26T12:24:25.566Z,82
2019-03-26T12:25:27.627Z,95
2019-03-26T12:26:29.669Z,243
2019-03-26T12:27:32.106Z,239
2019-03-26T12:28:34.138Z,87
2019-03-26T12:29:36.567Z,84
2019-03-26T12:30:38.904Z,72
2019-03-26T12:31:41.238Z,59
2019-03-26T12:32:43.266Z,67
2019-03-26T12:33:45.702Z,72
2019-03-26T12:34:47.747Z,70
2019-03-26T12:35:50.063Z,66
2019-03-26T12:36:52.109Z,63
2019-03-26T12:37:54.153Z,59
2019-03-26T12:38:56.192Z,51
2019-03-26T12:40:02.155Z,48
2019-03-26T12:41:04.230Z,46
2019-03-26T12:42:06.261Z,44
2019-03-26T12:43:08.310Z,44
2019-03-26T12:44:10.642Z,53
2019-03-26T12:45:12.682Z,80
2019-03-26T12:46:15.311Z,97
2019-03-26T12:47:17.734Z,104
2019-03-26T12:48:19.771Z,127
2019-03-26T12:49:21.827Z,145
2019-03-26T12:50:23.857Z,138
2019-03-26T12:51:26.241Z,143
2019-03-26T12:52:28.288Z,104
2019-03-26T12:53:30.429Z,90
2019-03-26T12:54:32.455Z,107
2019-03-26T12:55:34.776Z,76
2019-03-26T12:56:36.824Z,78
2019-03-26T12:57:39.128Z,91
2019-03-26T12:58:41.188Z,90
2019-03-26T12:59:43.500Z,88
2019-03-26T13:00:45.634Z,93
2019-03-26T13:01:47.701Z,147
2019-03-26T13:02:49.799Z,82
2019-03-26T13:03:51.848Z,63
2019-03-26T13:04:54.199Z,50
2019-03-26T13:05:56.325Z,46
2019-03-26T13:06:58.362Z,44
2019-03-26T13:08:00.402Z,44
2019-03-26T13:09:02.431Z,46
2019-03-26T13:10:15.654Z,50
2019-03-26T13:11:18.533Z,53
2019-03-26T13:12:20.577Z,49
2019-03-26T13:13:22.901Z,49
2019-03-26T13:14:24.947Z,44
2019-03-26T13:15:26.979Z,34
2019-03-26T13:16:29.309Z,28
2019-03-26T13:17:31.643Z,22
2019-03-26T13:18:33.675Z,19
2019-03-26T13:19:35.728Z,18
2019-03-26T13:20:38.052Z,21
2019-03-26T13:21:40.086Z,29
2019-03-26T13:22:42.144Z,37
2019-03-26T13:23:44.183Z,41
2019-03-26T13:24:46.229Z,40
2019-03-26T13:25:48.289Z,40
2019-03-26T13:26:50.492Z,37
2019-03-26T13:27:52.568Z,34
2019-03-26T13:28:54.620Z,33
2019-03-26T13:29:56.670Z,45
2019-03-26T13:30:58.686Z,56
2019-03-26T13:32:00.741Z,54
2019-03-26T13:33:03.354Z,55
2019-03-26T13:34:05.686Z,49
2019-03-26T13:35:08.098Z,48
2019-03-26T13:36:10.218Z,52
2019-03-26T13:37:12.262Z,42
2019-03-26T13:38:14.302Z,35
2019-03-26T13:39:16.357Z,31
2019-03-26T13:40:29.034Z,27
2019-03-26T13:41:31.075Z,22
2019-03-26T13:42:33.420Z,20
2019-03-26T13:43:35.473Z,19
2019-03-26T13:44:37.514Z,18
2019-03-26T13:45:39.559Z,19
2019-03-26T13:46:41.685Z,23
2019-03-26T13:47:44.025Z,25
2019-03-26T13:48:46.373Z,24
2019-03-26T13:49:48.840Z,28
2019-03-26T13:50:50.947Z,37
2019-03-26T13:51:53.364Z,51
2019-03-26T13:52:55.413Z,81
2019-03-26T13:53:57.458Z,126
2019-03-26T13:54:59.552Z,81
2019-03-26T13:56:01.611Z,76
2019-03-26T13:57:04.027Z,80
2019-03-26T13:58:06.070Z,70
2019-03-26T13:59:08.169Z,70
2019-03-26T14:00:10.227Z,73
2019-03-26T14:01:12.262Z,102
2019-03-26T14:02:14.297Z,60
2019-03-26T14:03:16.722Z,148
2019-03-26T14:04:18.748Z,140
2019-03-26T14:05:21.104Z,130
2019-03-26T14:06:23.141Z,75
2019-03-26T14:07:25.185Z,122
2019-03-26T14:08:27.263Z,123
2019-03-26T14:09:29.321Z,79
2019-03-26T14:10:42.693Z,73
2019-03-26T14:11:44.732Z,68
2019-03-26T14:12:46.854Z,63
2019-03-26T14:13:48.892Z,59
2019-03-26T14:14:51.295Z,106
2019-03-26T14:15:53.347Z,55
2019-03-26T14:16:55.383Z,64
2019-03-26T14:17:57.415Z,103
2019-03-26T14:18:59.457Z,84
2019-03-26T14:20:01.559Z,84
2019-03-26T14:21:04.268Z,108
2019-03-26T14:22:06.616Z,100
2019-03-26T14:23:08.662Z,75
2019-03-26T14:24:14.664Z,66
2019-03-26T14:25:17.102Z,65
2019-03-26T14:26:19.142Z,61
2019-03-26T14:27:21.185Z,68
2019-03-26T14:28:23.254Z,88
2019-03-26T14:29:26.446Z,61
2019-03-26T14:30:28.511Z,53
2019-03-26T14:31:30.552Z,49
2019-03-26T14:32:32.998Z,48
2019-03-26T14:33:35.024Z,86
2019-03-26T14:34:37.074Z,45
2019-03-26T14:35:39.118Z,41
2019-03-26T14:36:41.153Z,43
2019-03-26T14:37:52.878Z,48
2019-03-26T14:38:54.908Z,42
2019-03-26T14:39:57.065Z,72
2019-03-26T14:40:59.106Z,34
2019-03-26T14:42:01.453Z,36
2019-03-26T14:43:03.492Z,37
2019-03-26T14:44:05.609Z,39
2019-03-26T14:45:07.658Z,37
2019-03-26T14:46:09.756Z,45
2019-03-26T14:47:11.806Z,105
2019-03-26T14:48:13.933Z,100
2019-03-26T14:49:16.244Z,47
2019-03-26T14:50:18.287Z,47
2019-03-26T14:51:23.999Z,45
2019-03-26T14:52:26.046Z,45
2019-03-26T14:53:28.094Z,47
2019-03-26T14:54:30.148Z,106
2019-03-26T14:55:32.177Z,41
2019-03-26T14:56:34.243Z,37
2019-03-26T14:57:36.313Z,33
2019-03-26T14:58:38.343Z,34
2019-03-26T14:59:40.398Z,31
2019-03-26T15:00:42.442Z,31
2019-03-26T15:01:44.777Z,30
2019-03-26T15:02:46.806Z,32